sensor_id;sensor_type;location;lat;lon;timestamp;P1;durP1;ratioP1;P2;durP2;ratioP2
63807;SDS011;49961;43.970;22.868;2023-02-25T00:00:53;29.13;;;21.53;;
63807;SDS011;49961;43.970;22.868;2023-02-25T00:01:54;35.03;;;25.60;;
63807;SDS011;49961;43.970;22.868;2023-02-25T00:02:56;34.85;;;27.13;;
63807;SDS011;49961;43.970;22.868;2023-02-25T00:03:57;35.08;;;27.02;;
63807;SDS011;49961;43.970;22.868;2023-02-25T00:05:00;34.83;;;26.83;;
63807;SDS011;49961;43.970;22.868;2023-02-25T00:06:05;37.45;;;27.73;;
63807;SDS011;49961;43.970;22.868;2023-02-25T00:07:08;37.15;;;27.40;;
63807;SDS011;49961;43.970;22.868;2023-02-25T00:08:09;33.03;;;25.70;;
63807;SDS011;49961;43.970;22.868;2023-02-25T00:09:09;30.67;;;25.37;;
63807;SDS011;49961;43.970;22.868;2023-02-25T00:10:10;30.33;;;24.87;;
63807;SDS011;49961;43.970;22.868;2023-02-25T00:11:13;32.47;;;24.25;;
63807;SDS011;49961;43.970;22.868;2023-02-25T00:12:15;32.00;;;25.55;;
63807;SDS011;49961;43.970;22.868;2023-02-25T00:13:15;32.60;;;25.10;;
63807;SDS011;49961;43.970;22.868;2023-02-25T00:14:15;30.97;;;22.73;;
63807;SDS011;49961;43.970;22.868;2023-02-25T00:15:16;28.90;;;23.47;;
63807;SDS011;49961;43.970;22.868;2023-02-25T00:16:17;28.33;;;22.53;;
63807;SDS011;49961;43.970;22.868;2023-02-25T00:17:19;27.83;;;23.63;;
63807;SDS011;49961;43.970;22.868;2023-02-25T00:18:19;31.80;;;24.40;;
63807;SDS011;49961;43.970;22.868;2023-02-25T00:19:20;30.10;;;23.33;;
63807;SDS011;49961;43.970;22.868;2023-02-25T00:20:21;30.42;;;24.00;;
63807;SDS011;49961;43.970;22.868;2023-02-25T00:21:22;30.57;;;23.57;;
63807;SDS011;49961;43.970;22.868;2023-02-25T00:22:24;31.00;;;23.92;;
63807;SDS011;49961;43.970;22.868;2023-02-25T00:23:25;28.67;;;23.15;;
63807;SDS011;49961;43.970;22.868;2023-02-25T00:24:26;38.83;;;26.40;;
63807;SDS011;49961;43.970;22.868;2023-02-25T00:25:27;40.13;;;28.35;;
63807;SDS011;49961;43.970;22.868;2023-02-25T00:26:27;36.10;;;27.97;;
63807;SDS011;49961;43.970;22.868;2023-02-25T00:27:28;31.80;;;24.97;;
63807;SDS011;49961;43.970;22.868;2023-02-25T00:28:29;37.87;;;25.67;;
63807;SDS011;49961;43.970;22.868;2023-02-25T00:29:31;41.42;;;28.35;;
63807;SDS011;49961;43.970;22.868;2023-02-25T00:30:32;39.87;;;27.90;;
63807;SDS011;49961;43.970;22.868;2023-02-25T00:31:34;35.72;;;26.88;;
63807;SDS011;49961;43.970;22.868;2023-02-25T00:32:34;32.50;;;25.33;;
63807;SDS011;49961;43.970;22.868;2023-02-25T00:33:35;34.30;;;25.27;;
63807;SDS011;49961;43.970;22.868;2023-02-25T00:34:36;34.33;;;25.20;;
63807;SDS011;49961;43.970;22.868;2023-02-25T00:35:39;30.60;;;25.37;;
63807;SDS011;49961;43.970;22.868;2023-02-25T00:36:40;30.08;;;24.85;;
63807;SDS011;49961;43.970;22.868;2023-02-25T00:37:40;35.77;;;26.50;;
63807;SDS011;49961;43.970;22.868;2023-02-25T00:38:41;35.00;;;25.30;;
63807;SDS011;49961;43.970;22.868;2023-02-25T00:39:41;32.53;;;26.07;;
63807;SDS011;49961;43.970;22.868;2023-02-25T00:40:42;33.30;;;25.07;;
63807;SDS011;49961;43.970;22.868;2023-02-25T00:41:42;34.00;;;25.37;;
63807;SDS011;49961;43.970;22.868;2023-02-25T00:42:43;36.57;;;25.87;;
63807;SDS011;49961;43.970;22.868;2023-02-25T00:43:47;40.10;;;27.37;;
63807;SDS011;49961;43.970;22.868;2023-02-25T00:44:52;37.53;;;27.17;;
63807;SDS011;49961;43.970;22.868;2023-02-25T00:45:53;39.13;;;27.40;;
63807;SDS011;49961;43.970;22.868;2023-02-25T00:46:53;36.53;;;27.03;;
63807;SDS011;49961;43.970;22.868;2023-02-25T00:47:54;35.93;;;24.97;;
63807;SDS011;49961;43.970;22.868;2023-02-25T00:48:54;34.37;;;26.17;;
63807;SDS011;49961;43.970;22.868;2023-02-25T00:49:55;35.80;;;26.17;;
63807;SDS011;49961;43.970;22.868;2023-02-25T00:50:55;34.30;;;25.73;;
63807;SDS011;49961;43.970;22.868;2023-02-25T00:51:56;38.77;;;27.07;;
63807;SDS011;49961;43.970;22.868;2023-02-25T00:52:56;40.17;;;27.30;;
63807;SDS011;49961;43.970;22.868;2023-02-25T00:53:57;35.07;;;25.97;;
63807;SDS011;49961;43.970;22.868;2023-02-25T00:54:58;38.13;;;26.03;;
63807;SDS011;49961;43.970;22.868;2023-02-25T00:56:01;40.70;;;26.23;;
63807;SDS011;49961;43.970;22.868;2023-02-25T00:57:01;39.63;;;26.23;;
63807;SDS011;49961;43.970;22.868;2023-02-25T00:58:02;34.43;;;24.97;;
63807;SDS011;49961;43.970;22.868;2023-02-25T00:59:03;31.97;;;22.53;;
63807;SDS011;49961;43.970;22.868;2023-02-25T01:00:04;31.87;;;23.33;;
63807;SDS011;49961;43.970;22.868;2023-02-25T01:01:24;29.98;;;21.63;;
63807;SDS011;49961;43.970;22.868;2023-02-25T01:02:26;30.95;;;21.90;;
63807;SDS011;49961;43.970;22.868;2023-02-25T01:03:27;36.40;;;23.15;;
63807;SDS011;49961;43.970;22.868;2023-02-25T01:04:28;39.63;;;23.17;;
63807;SDS011;49961;43.970;22.868;2023-02-25T01:05:28;38.30;;;22.07;;
63807;SDS011;49961;43.970;22.868;2023-02-25T01:06:29;31.30;;;21.17;;
63807;SDS011;49961;43.970;22.868;2023-02-25T01:07:31;32.47;;;20.63;;
63807;SDS011;49961;43.970;22.868;2023-02-25T01:08:32;30.43;;;21.00;;
63807;SDS011;49961;43.970;22.868;2023-02-25T01:09:32;34.20;;;20.00;;
63807;SDS011;49961;43.970;22.868;2023-02-25T01:10:33;35.27;;;21.07;;
63807;SDS011;49961;43.970;22.868;2023-02-25T01:11:34;34.17;;;24.97;;
63807;SDS011;49961;43.970;22.868;2023-02-25T01:12:35;31.13;;;21.20;;
63807;SDS011;49961;43.970;22.868;2023-02-25T01:13:36;32.50;;;22.13;;
63807;SDS011;49961;43.970;22.868;2023-02-25T01:14:36;30.43;;;21.40;;
63807;SDS011;49961;43.970;22.868;2023-02-25T01:15:38;28.13;;;21.13;;
63807;SDS011;49961;43.970;22.868;2023-02-25T01:16:38;25.23;;;20.07;;
63807;SDS011;49961;43.970;22.868;2023-02-25T01:17:39;26.03;;;20.57;;
63807;SDS011;49961;43.970;22.868;2023-02-25T01:18:39;27.37;;;20.43;;
63807;SDS011;49961;43.970;22.868;2023-02-25T01:19:40;22.23;;;17.07;;
63807;SDS011;49961;43.970;22.868;2023-02-25T01:20:40;22.40;;;17.07;;
63807;SDS011;49961;43.970;22.868;2023-02-25T01:21:42;21.33;;;16.73;;
63807;SDS011;49961;43.970;22.868;2023-02-25T01:22:45;20.80;;;17.50;;
63807;SDS011;49961;43.970;22.868;2023-02-25T01:23:46;21.07;;;16.70;;
63807;SDS011;49961;43.970;22.868;2023-02-25T01:24:48;24.45;;;18.08;;
63807;SDS011;49961;43.970;22.868;2023-02-25T01:25:48;22.37;;;18.27;;
63807;SDS011;49961;43.970;22.868;2023-02-25T01:26:50;23.60;;;17.37;;
63807;SDS011;49961;43.970;22.868;2023-02-25T01:27:55;26.23;;;17.58;;
63807;SDS011;49961;43.970;22.868;2023-02-25T01:28:56;21.60;;;16.98;;
63807;SDS011;49961;43.970;22.868;2023-02-25T01:29:57;23.13;;;18.50;;
63807;SDS011;49961;43.970;22.868;2023-02-25T01:30:57;22.93;;;18.93;;
63807;SDS011;49961;43.970;22.868;2023-02-25T01:31:59;30.77;;;21.73;;
63807;SDS011;49961;43.970;22.868;2023-02-25T01:33:00;26.27;;;21.05;;
63807;SDS011;49961;43.970;22.868;2023-02-25T01:34:01;30.17;;;24.30;;
63807;SDS011;49961;43.970;22.868;2023-02-25T01:35:03;43.08;;;28.65;;
63807;SDS011;49961;43.970;22.868;2023-02-25T01:36:05;38.72;;;28.67;;
63807;SDS011;49961;43.970;22.868;2023-02-25T01:37:05;38.95;;;28.98;;
63807;SDS011;49961;43.970;22.868;2023-02-25T01:38:06;42.33;;;29.80;;
63807;SDS011;49961;43.970;22.868;2023-02-25T01:39:06;32.40;;;24.97;;
63807;SDS011;49961;43.970;22.868;2023-02-25T01:40:07;32.13;;;22.63;;
63807;SDS011;49961;43.970;22.868;2023-02-25T01:41:12;28.35;;;21.77;;
63807;SDS011;49961;43.970;22.868;2023-02-25T01:42:14;24.73;;;19.73;;
63807;SDS011;49961;43.970;22.868;2023-02-25T01:43:16;24.73;;;19.40;;
63807;SDS011;49961;43.970;22.868;2023-02-25T01:44:19;23.10;;;19.92;;
63807;SDS011;49961;43.970;22.868;2023-02-25T01:45:23;27.08;;;20.15;;
63807;SDS011;49961;43.970;22.868;2023-02-25T01:46:27;25.75;;;19.23;;
63807;SDS011;49961;43.970;22.868;2023-02-25T01:47:28;27.45;;;18.55;;
63807;SDS011;49961;43.970;22.868;2023-02-25T01:48:35;26.55;;;21.25;;
63807;SDS011;49961;43.970;22.868;2023-02-25T01:49:40;31.55;;;24.95;;
63807;SDS011;49961;43.970;22.868;2023-02-25T01:50:46;30.45;;;23.70;;
63807;SDS011;49961;43.970;22.868;2023-02-25T01:51:52;28.35;;;22.08;;
63807;SDS011;49961;43.970;22.868;2023-02-25T01:52:54;27.42;;;21.55;;
63807;SDS011;49961;43.970;22.868;2023-02-25T01:53:57;31.85;;;22.10;;
63807;SDS011;49961;43.970;22.868;2023-02-25T01:55:01;29.15;;;22.17;;
63807;SDS011;49961;43.970;22.868;2023-02-25T01:56:03;34.83;;;23.73;;
63807;SDS011;49961;43.970;22.868;2023-02-25T01:57:08;33.20;;;23.52;;
63807;SDS011;49961;43.970;22.868;2023-02-25T01:58:10;32.55;;;22.77;;
63807;SDS011;49961;43.970;22.868;2023-02-25T01:59:11;31.38;;;22.40;;
63807;SDS011;49961;43.970;22.868;2023-02-25T02:00:12;34.17;;;23.20;;
63807;SDS011;49961;43.970;22.868;2023-02-25T02:01:18;32.75;;;23.48;;
63807;SDS011;49961;43.970;22.868;2023-02-25T02:02:21;34.42;;;23.92;;
63807;SDS011;49961;43.970;22.868;2023-02-25T02:03:25;35.08;;;24.17;;
63807;SDS011;49961;43.970;22.868;2023-02-25T02:04:29;34.90;;;23.15;;
63807;SDS011;49961;43.970;22.868;2023-02-25T02:05:41;34.28;;;24.52;;
63807;SDS011;49961;43.970;22.868;2023-02-25T02:06:52;31.75;;;24.05;;
63807;SDS011;49961;43.970;22.868;2023-02-25T02:07:54;34.72;;;24.23;;
63807;SDS011;49961;43.970;22.868;2023-02-25T02:08:55;30.23;;;23.53;;
63807;SDS011;49961;43.970;22.868;2023-02-25T02:09:55;30.53;;;23.07;;
63807;SDS011;49961;43.970;22.868;2023-02-25T02:10:56;30.97;;;24.00;;
63807;SDS011;49961;43.970;22.868;2023-02-25T02:11:57;27.83;;;22.83;;
63807;SDS011;49961;43.970;22.868;2023-02-25T02:13:00;31.05;;;22.90;;
63807;SDS011;49961;43.970;22.868;2023-02-25T02:14:01;28.17;;;22.60;;
63807;SDS011;49961;43.970;22.868;2023-02-25T02:15:05;25.95;;;21.50;;
63807;SDS011;49961;43.970;22.868;2023-02-25T02:17:32;29.20;;;22.90;;
63807;SDS011;49961;43.970;22.868;2023-02-25T02:18:45;29.52;;;22.63;;
63807;SDS011;49961;43.970;22.868;2023-02-25T02:21:19;32.42;;;23.85;;
63807;SDS011;49961;43.970;22.868;2023-02-25T02:24:58;37.67;;;27.10;;
63807;SDS011;49961;43.970;22.868;2023-02-25T02:32:35;39.70;;;27.92;;
63807;SDS011;49961;43.970;22.868;2023-02-25T02:36:19;44.03;;;31.05;;
63807;SDS011;49961;43.970;22.868;2023-02-25T02:39:21;40.92;;;27.85;;
63807;SDS011;49961;43.970;22.868;2023-02-25T02:41:42;42.25;;;29.60;;
63807;SDS011;49961;43.970;22.868;2023-02-25T02:43:00;48.72;;;31.73;;
63807;SDS011;49961;43.970;22.868;2023-02-25T02:44:37;49.63;;;33.42;;
63807;SDS011;49961;43.970;22.868;2023-02-25T02:46:03;50.33;;;31.30;;
63807;SDS011;49961;43.970;22.868;2023-02-25T02:47:11;47.00;;;31.75;;
63807;SDS011;49961;43.970;22.868;2023-02-25T02:49:56;54.78;;;32.03;;
63807;SDS011;49961;43.970;22.868;2023-02-25T02:51:06;45.65;;;30.88;;
63807;SDS011;49961;43.970;22.868;2023-02-25T02:52:13;43.90;;;30.30;;
63807;SDS011;49961;43.970;22.868;2023-02-25T02:53:25;42.75;;;29.48;;
63807;SDS011;49961;43.970;22.868;2023-02-25T02:54:32;48.67;;;32.28;;
63807;SDS011;49961;43.970;22.868;2023-02-25T02:55:38;50.42;;;34.92;;
63807;SDS011;49961;43.970;22.868;2023-02-25T02:56:51;53.15;;;35.20;;
63807;SDS011;49961;43.970;22.868;2023-02-25T02:58:02;60.90;;;40.47;;
63807;SDS011;49961;43.970;22.868;2023-02-25T02:59:19;61.30;;;39.97;;
63807;SDS011;49961;43.970;22.868;2023-02-25T03:00:26;53.53;;;36.38;;
63807;SDS011;49961;43.970;22.868;2023-02-25T03:01:40;51.67;;;35.08;;
63807;SDS011;49961;43.970;22.868;2023-02-25T03:02:51;50.72;;;35.83;;
63807;SDS011;49961;43.970;22.868;2023-02-25T03:04:00;53.85;;;34.78;;
63807;SDS011;49961;43.970;22.868;2023-02-25T03:05:06;51.00;;;35.55;;
63807;SDS011;49961;43.970;22.868;2023-02-25T03:06:10;49.47;;;34.25;;
63807;SDS011;49961;43.970;22.868;2023-02-25T03:07:15;46.72;;;32.17;;
63807;SDS011;49961;43.970;22.868;2023-02-25T03:08:21;42.70;;;32.17;;
63807;SDS011;49961;43.970;22.868;2023-02-25T03:09:30;39.53;;;26.55;;
63807;SDS011;49961;43.970;22.868;2023-02-25T03:10:34;40.50;;;27.50;;
63807;SDS011;49961;43.970;22.868;2023-02-25T03:11:35;48.47;;;20.80;;
63807;SDS011;49961;43.970;22.868;2023-02-25T03:12:35;30.90;;;23.07;;
63807;SDS011;49961;43.970;22.868;2023-02-25T03:13:38;35.00;;;25.90;;
63807;SDS011;49961;43.970;22.868;2023-02-25T03:14:38;43.63;;;25.27;;
63807;SDS011;49961;43.970;22.868;2023-02-25T03:15:39;33.70;;;23.87;;
63807;SDS011;49961;43.970;22.868;2023-02-25T03:16:45;38.30;;;23.42;;
63807;SDS011;49961;43.970;22.868;2023-02-25T03:17:51;31.65;;;22.13;;
63807;SDS011;49961;43.970;22.868;2023-02-25T03:20:16;30.83;;;23.77;;
63807;SDS011;49961;43.970;22.868;2023-02-25T03:21:24;32.50;;;23.33;;
63807;SDS011;49961;43.970;22.868;2023-02-25T03:22:32;29.90;;;20.80;;
63807;SDS011;49961;43.970;22.868;2023-02-25T03:23:36;27.20;;;21.77;;
63807;SDS011;49961;43.970;22.868;2023-02-25T03:24:53;26.05;;;20.33;;
63807;SDS011;49961;43.970;22.868;2023-02-25T03:26:08;28.65;;;21.75;;
63807;SDS011;49961;43.970;22.868;2023-02-25T03:27:26;76.03;;;21.00;;
63807;SDS011;49961;43.970;22.868;2023-02-25T03:28:33;94.50;;;32.85;;
63807;SDS011;49961;43.970;22.868;2023-02-25T03:29:34;156.73;;;34.50;;
63807;SDS011;49961;43.970;22.868;2023-02-25T03:30:36;84.93;;;33.37;;
63807;SDS011;49961;43.970;22.868;2023-02-25T03:31:47;50.72;;;31.02;;
63807;SDS011;49961;43.970;22.868;2023-02-25T03:32:56;43.35;;;30.88;;
63807;SDS011;49961;43.970;22.868;2023-02-25T03:34:34;42.30;;;29.95;;
63807;SDS011;49961;43.970;22.868;2023-02-25T03:35:34;39.60;;;28.27;;
63807;SDS011;49961;43.970;22.868;2023-02-25T03:36:40;49.83;;;29.77;;
63807;SDS011;49961;43.970;22.868;2023-02-25T03:37:44;37.20;;;28.25;;
63807;SDS011;49961;43.970;22.868;2023-02-25T03:38:50;40.95;;;28.67;;
63807;SDS011;49961;43.970;22.868;2023-02-25T03:39:54;40.55;;;29.75;;
63807;SDS011;49961;43.970;22.868;2023-02-25T03:40:59;87.80;;;29.98;;
63807;SDS011;49961;43.970;22.868;2023-02-25T03:42:02;75.43;;;27.80;;
63807;SDS011;49961;43.970;22.868;2023-02-25T03:43:06;39.08;;;26.77;;
63807;SDS011;49961;43.970;22.868;2023-02-25T03:44:12;34.33;;;25.80;;
63807;SDS011;49961;43.970;22.868;2023-02-25T03:45:17;32.53;;;24.98;;
63807;SDS011;49961;43.970;22.868;2023-02-25T03:46:20;26.50;;;22.50;;
63807;SDS011;49961;43.970;22.868;2023-02-25T03:47:21;33.35;;;20.92;;
63807;SDS011;49961;43.970;22.868;2023-02-25T03:48:26;56.25;;;22.10;;
63807;SDS011;49961;43.970;22.868;2023-02-25T03:49:36;31.75;;;20.75;;
63807;SDS011;49961;43.970;22.868;2023-02-25T03:50:46;27.90;;;22.42;;
63807;SDS011;49961;43.970;22.868;2023-02-25T03:51:52;32.38;;;22.85;;
63807;SDS011;49961;43.970;22.868;2023-02-25T03:52:56;29.48;;;22.58;;
63807;SDS011;49961;43.970;22.868;2023-02-25T03:53:57;30.83;;;22.95;;
63807;SDS011;49961;43.970;22.868;2023-02-25T03:54:57;42.67;;;25.57;;
63807;SDS011;49961;43.970;22.868;2023-02-25T03:55:59;51.00;;;31.67;;
63807;SDS011;49961;43.970;22.868;2023-02-25T03:57:04;55.47;;;34.55;;
63807;SDS011;49961;43.970;22.868;2023-02-25T03:58:06;69.07;;;35.27;;
63807;SDS011;49961;43.970;22.868;2023-02-25T03:59:07;66.40;;;37.45;;
63807;SDS011;49961;43.970;22.868;2023-02-25T04:00:09;81.33;;;39.53;;
63807;SDS011;49961;43.970;22.868;2023-02-25T04:01:26;80.95;;;41.58;;
63807;SDS011;49961;43.970;22.868;2023-02-25T04:02:30;76.85;;;39.75;;
63807;SDS011;49961;43.970;22.868;2023-02-25T04:03:32;71.28;;;38.72;;
63807;SDS011;49961;43.970;22.868;2023-02-25T04:04:33;83.17;;;39.57;;
63807;SDS011;49961;43.970;22.868;2023-02-25T04:05:33;76.73;;;37.13;;
63807;SDS011;49961;43.970;22.868;2023-02-25T04:06:35;67.50;;;35.38;;
63807;SDS011;49961;43.970;22.868;2023-02-25T04:07:35;56.40;;;31.83;;
63807;SDS011;49961;43.970;22.868;2023-02-25T04:08:36;60.27;;;33.47;;
63807;SDS011;49961;43.970;22.868;2023-02-25T04:09:37;83.77;;;36.57;;
63807;SDS011;49961;43.970;22.868;2023-02-25T04:10:38;116.53;;;39.50;;
63807;SDS011;49961;43.970;22.868;2023-02-25T04:11:42;91.75;;;37.95;;
63807;SDS011;49961;43.970;22.868;2023-02-25T04:12:43;161.87;;;38.37;;
63807;SDS011;49961;43.970;22.868;2023-02-25T04:13:43;105.37;;;37.43;;
63807;SDS011;49961;43.970;22.868;2023-02-25T04:14:44;138.03;;;36.77;;
63807;SDS011;49961;43.970;22.868;2023-02-25T04:15:44;112.00;;;37.50;;
63807;SDS011;49961;43.970;22.868;2023-02-25T04:16:46;112.10;;;35.78;;
63807;SDS011;49961;43.970;22.868;2023-02-25T04:17:46;131.50;;;36.73;;
63807;SDS011;49961;43.970;22.868;2023-02-25T04:18:47;162.27;;;39.30;;
63807;SDS011;49961;43.970;22.868;2023-02-25T04:19:47;100.10;;;37.57;;
63807;SDS011;49961;43.970;22.868;2023-02-25T04:20:47;90.30;;;37.07;;
63807;SDS011;49961;43.970;22.868;2023-02-25T04:21:48;96.03;;;37.40;;
63807;SDS011;49961;43.970;22.868;2023-02-25T04:22:48;73.93;;;35.20;;
63807;SDS011;49961;43.970;22.868;2023-02-25T04:23:49;83.90;;;37.13;;
63807;SDS011;49961;43.970;22.868;2023-02-25T04:24:49;75.40;;;35.67;;
63807;SDS011;49961;43.970;22.868;2023-02-25T04:25:50;88.23;;;38.00;;
63807;SDS011;49961;43.970;22.868;2023-02-25T04:26:50;88.47;;;37.87;;
63807;SDS011;49961;43.970;22.868;2023-02-25T04:27:57;128.15;;;40.78;;
63807;SDS011;49961;43.970;22.868;2023-02-25T04:28:57;76.30;;;38.50;;
63807;SDS011;49961;43.970;22.868;2023-02-25T04:29:58;85.47;;;38.87;;
63807;SDS011;49961;43.970;22.868;2023-02-25T04:30:58;71.90;;;38.63;;
63807;SDS011;49961;43.970;22.868;2023-02-25T04:31:59;78.43;;;40.27;;
63807;SDS011;49961;43.970;22.868;2023-02-25T04:32:59;81.97;;;39.47;;
63807;SDS011;49961;43.970;22.868;2023-02-25T04:34:00;75.60;;;40.13;;
63807;SDS011;49961;43.970;22.868;2023-02-25T04:35:00;86.60;;;40.63;;
63807;SDS011;49961;43.970;22.868;2023-02-25T04:36:02;76.00;;;41.88;;
63807;SDS011;49961;43.970;22.868;2023-02-25T04:37:03;142.23;;;44.20;;
63807;SDS011;49961;43.970;22.868;2023-02-25T04:38:03;85.57;;;42.13;;
63807;SDS011;49961;43.970;22.868;2023-02-25T04:39:04;79.20;;;41.60;;
63807;SDS011;49961;43.970;22.868;2023-02-25T04:40:05;104.07;;;41.37;;
63807;SDS011;49961;43.970;22.868;2023-02-25T04:41:16;92.18;;;41.65;;
63807;SDS011;49961;43.970;22.868;2023-02-25T04:42:35;76.43;;;40.72;;
63807;SDS011;49961;43.970;22.868;2023-02-25T04:43:35;99.87;;;42.70;;
63807;SDS011;49961;43.970;22.868;2023-02-25T04:44:35;80.33;;;42.47;;
63807;SDS011;49961;43.970;22.868;2023-02-25T04:45:36;67.07;;;39.87;;
63807;SDS011;49961;43.970;22.868;2023-02-25T04:46:38;67.77;;;38.93;;
63807;SDS011;49961;43.970;22.868;2023-02-25T04:47:41;70.13;;;38.83;;
63807;SDS011;49961;43.970;22.868;2023-02-25T04:48:42;58.03;;;35.87;;
63807;SDS011;49961;43.970;22.868;2023-02-25T04:49:42;64.40;;;36.93;;
63807;SDS011;49961;43.970;22.868;2023-02-25T04:50:45;59.53;;;36.75;;
63807;SDS011;49961;43.970;22.868;2023-02-25T04:51:46;64.40;;;36.77;;
63807;SDS011;49961;43.970;22.868;2023-02-25T04:52:48;67.97;;;37.40;;
63807;SDS011;49961;43.970;22.868;2023-02-25T04:53:49;68.33;;;36.57;;
63807;SDS011;49961;43.970;22.868;2023-02-25T04:54:49;67.33;;;37.40;;
63807;SDS011;49961;43.970;22.868;2023-02-25T04:55:49;75.17;;;35.60;;
63807;SDS011;49961;43.970;22.868;2023-02-25T04:56:50;73.50;;;37.80;;
63807;SDS011;49961;43.970;22.868;2023-02-25T04:57:50;66.87;;;36.03;;
63807;SDS011;49961;43.970;22.868;2023-02-25T04:58:51;66.53;;;37.87;;
63807;SDS011;49961;43.970;22.868;2023-02-25T04:59:51;63.17;;;36.37;;
63807;SDS011;49961;43.970;22.868;2023-02-25T05:00:52;61.60;;;36.33;;
63807;SDS011;49961;43.970;22.868;2023-02-25T05:01:54;54.30;;;34.28;;
63807;SDS011;49961;43.970;22.868;2023-02-25T05:02:54;59.00;;;35.30;;
63807;SDS011;49961;43.970;22.868;2023-02-25T05:03:55;58.97;;;34.97;;
63807;SDS011;49961;43.970;22.868;2023-02-25T05:04:56;66.57;;;37.20;;
63807;SDS011;49961;43.970;22.868;2023-02-25T05:05:56;77.87;;;38.03;;
63807;SDS011;49961;43.970;22.868;2023-02-25T05:06:57;73.70;;;37.83;;
63807;SDS011;49961;43.970;22.868;2023-02-25T05:07:57;59.97;;;38.27;;
63807;SDS011;49961;43.970;22.868;2023-02-25T05:08:58;64.03;;;36.03;;
63807;SDS011;49961;43.970;22.868;2023-02-25T05:09:58;134.03;;;37.43;;
63807;SDS011;49961;43.970;22.868;2023-02-25T05:10:59;195.13;;;40.47;;
63807;SDS011;49961;43.970;22.868;2023-02-25T05:12:00;87.63;;;36.78;;
63807;SDS011;49961;43.970;22.868;2023-02-25T05:13:02;118.97;;;39.33;;
63807;SDS011;49961;43.970;22.868;2023-02-25T05:14:02;112.27;;;38.13;;
63807;SDS011;49961;43.970;22.868;2023-02-25T05:15:03;128.30;;;39.33;;
63807;SDS011;49961;43.970;22.868;2023-02-25T05:16:08;142.35;;;39.30;;
63807;SDS011;49961;43.970;22.868;2023-02-25T05:17:11;150.50;;;40.05;;
63807;SDS011;49961;43.970;22.868;2023-02-25T05:18:12;93.30;;;40.40;;
63807;SDS011;49961;43.970;22.868;2023-02-25T05:19:31;110.50;;;38.37;;
63807;SDS011;49961;43.970;22.868;2023-02-25T05:20:31;136.10;;;37.50;;
63807;SDS011;49961;43.970;22.868;2023-02-25T05:21:32;129.30;;;36.53;;
63807;SDS011;49961;43.970;22.868;2023-02-25T05:22:32;91.77;;;36.67;;
63807;SDS011;49961;43.970;22.868;2023-02-25T05:23:33;98.22;;;38.60;;
63807;SDS011;49961;43.970;22.868;2023-02-25T05:24:34;155.33;;;40.30;;
63807;SDS011;49961;43.970;22.868;2023-02-25T05:25:35;117.23;;;38.43;;
63807;SDS011;49961;43.970;22.868;2023-02-25T05:26:40;132.20;;;39.58;;
63807;SDS011;49961;43.970;22.868;2023-02-25T05:27:41;82.10;;;39.73;;
63807;SDS011;49961;43.970;22.868;2023-02-25T05:28:41;70.30;;;39.17;;
63807;SDS011;49961;43.970;22.868;2023-02-25T05:29:44;83.72;;;41.50;;
63807;SDS011;49961;43.970;22.868;2023-02-25T05:30:45;74.37;;;40.60;;
63807;SDS011;49961;43.970;22.868;2023-02-25T05:31:45;71.87;;;37.80;;
63807;SDS011;49961;43.970;22.868;2023-02-25T05:32:46;69.57;;;37.75;;
63807;SDS011;49961;43.970;22.868;2023-02-25T05:33:46;144.70;;;37.63;;
63807;SDS011;49961;43.970;22.868;2023-02-25T05:34:47;122.67;;;39.13;;
63807;SDS011;49961;43.970;22.868;2023-02-25T05:35:47;95.23;;;39.67;;
63807;SDS011;49961;43.970;22.868;2023-02-25T05:36:48;94.85;;;38.83;;
63807;SDS011;49961;43.970;22.868;2023-02-25T05:37:49;150.97;;;40.40;;
63807;SDS011;49961;43.970;22.868;2023-02-25T05:38:51;191.00;;;38.50;;
63807;SDS011;49961;43.970;22.868;2023-02-25T05:39:53;169.57;;;36.88;;
63807;SDS011;49961;43.970;22.868;2023-02-25T05:40:53;172.63;;;39.83;;
63807;SDS011;49961;43.970;22.868;2023-02-25T05:41:54;232.23;;;41.87;;
63807;SDS011;49961;43.970;22.868;2023-02-25T05:42:54;149.17;;;39.13;;
63807;SDS011;49961;43.970;22.868;2023-02-25T05:43:55;147.07;;;39.13;;
63807;SDS011;49961;43.970;22.868;2023-02-25T05:44:57;126.85;;;41.63;;
63807;SDS011;49961;43.970;22.868;2023-02-25T05:45:58;155.67;;;41.77;;
63807;SDS011;49961;43.970;22.868;2023-02-25T05:47:00;91.75;;;42.13;;
63807;SDS011;49961;43.970;22.868;2023-02-25T05:48:01;136.57;;;43.53;;
63807;SDS011;49961;43.970;22.868;2023-02-25T05:49:01;184.80;;;43.60;;
63807;SDS011;49961;43.970;22.868;2023-02-25T05:50:02;153.60;;;40.67;;
63807;SDS011;49961;43.970;22.868;2023-02-25T05:51:04;145.67;;;40.40;;
63807;SDS011;49961;43.970;22.868;2023-02-25T05:52:10;148.90;;;39.47;;
63807;SDS011;49961;43.970;22.868;2023-02-25T05:53:11;139.60;;;39.47;;
63807;SDS011;49961;43.970;22.868;2023-02-25T05:54:12;165.40;;;39.13;;
63807;SDS011;49961;43.970;22.868;2023-02-25T05:55:12;146.03;;;38.70;;
63807;SDS011;49961;43.970;22.868;2023-02-25T05:56:14;179.23;;;40.00;;
63807;SDS011;49961;43.970;22.868;2023-02-25T05:57:21;173.68;;;39.95;;
63807;SDS011;49961;43.970;22.868;2023-02-25T05:58:23;136.13;;;41.58;;
63807;SDS011;49961;43.970;22.868;2023-02-25T05:59:23;129.67;;;42.80;;
63807;SDS011;49961;43.970;22.868;2023-02-25T06:00:24;145.83;;;42.03;;
63807;SDS011;49961;43.970;22.868;2023-02-25T06:01:25;103.00;;;40.80;;
63807;SDS011;49961;43.970;22.868;2023-02-25T06:02:31;121.82;;;43.65;;
63807;SDS011;49961;43.970;22.868;2023-02-25T06:03:32;163.98;;;41.45;;
63807;SDS011;49961;43.970;22.868;2023-02-25T06:04:33;119.23;;;42.73;;
63807;SDS011;49961;43.970;22.868;2023-02-25T06:05:33;133.53;;;43.27;;
63807;SDS011;49961;43.970;22.868;2023-02-25T06:06:33;138.87;;;43.90;;
63807;SDS011;49961;43.970;22.868;2023-02-25T06:07:34;141.17;;;40.27;;
63807;SDS011;49961;43.970;22.868;2023-02-25T06:08:35;175.73;;;38.70;;
63807;SDS011;49961;43.970;22.868;2023-02-25T06:09:35;114.00;;;37.70;;
63807;SDS011;49961;43.970;22.868;2023-02-25T06:10:37;142.35;;;38.50;;
63807;SDS011;49961;43.970;22.868;2023-02-25T06:11:38;136.82;;;38.55;;
63807;SDS011;49961;43.970;22.868;2023-02-25T06:12:39;146.47;;;37.73;;
63807;SDS011;49961;43.970;22.868;2023-02-25T06:13:39;120.03;;;34.43;;
63807;SDS011;49961;43.970;22.868;2023-02-25T06:14:41;130.18;;;37.03;;
63807;SDS011;49961;43.970;22.868;2023-02-25T06:15:41;131.87;;;37.30;;
63807;SDS011;49961;43.970;22.868;2023-02-25T06:16:42;132.73;;;36.75;;
63807;SDS011;49961;43.970;22.868;2023-02-25T06:17:43;97.25;;;36.38;;
63807;SDS011;49961;43.970;22.868;2023-02-25T06:18:44;101.80;;;34.73;;
63807;SDS011;49961;43.970;22.868;2023-02-25T06:19:45;138.25;;;37.78;;
63807;SDS011;49961;43.970;22.868;2023-02-25T06:20:46;99.83;;;35.33;;
63807;SDS011;49961;43.970;22.868;2023-02-25T06:21:46;99.87;;;36.03;;
63807;SDS011;49961;43.970;22.868;2023-02-25T06:22:47;84.20;;;37.93;;